createdAt,value
2019-03-08T00:01:37.884Z,8.90
2019-03-08T00:04:10.824Z,9.00
2019-03-08T00:06:43.603Z,9.10
2019-03-08T00:09:16.523Z,9.00
2019-03-08T00:11:49.364Z,9.00
2019-03-08T00:14:22.403Z,8.70
2019-03-08T00:16:55.485Z,8.70
2019-03-08T00:19:28.923Z,9.00
2019-03-08T00:22:01.642Z,8.90
2019-03-08T00:24:34.404Z,9.00
2019-03-08T00:27:07.537Z,9.10
2019-03-08T00:29:40.386Z,8.80
2019-03-08T00:32:15.005Z,9.00
2019-03-08T00:34:47.964Z,9.10
2019-03-08T00:37:21.611Z,9.00
2019-03-08T00:39:54.485Z,8.90
2019-03-08T00:42:27.723Z,9.00
2019-03-08T00:45:00.851Z,8.90
2019-03-08T00:47:33.743Z,8.90
2019-03-08T00:50:06.626Z,8.90
2019-03-08T00:52:39.744Z,8.90
2019-03-08T00:55:12.763Z,8.80
2019-03-08T00:57:45.563Z,8.80
2019-03-08T01:00:18.686Z,8.80
2019-03-08T01:02:51.523Z,8.60
2019-03-08T01:05:24.989Z,8.60
2019-03-08T01:07:58.463Z,8.40
2019-03-08T01:10:32.044Z,8.40
2019-03-08T01:13:05.346Z,8.50
2019-03-08T01:15:38.444Z,8.50
2019-03-08T01:18:12.126Z,8.50
2019-03-08T01:20:45.143Z,8.50
2019-03-08T01:23:18.143Z,8.50
2019-03-08T01:25:51.403Z,8.20
2019-03-08T01:28:24.284Z,8.40
2019-03-08T01:30:57.303Z,8.00
2019-03-08T01:33:30.023Z,7.80
2019-03-08T01:36:02.834Z,7.70
2019-03-08T01:38:35.723Z,7.90
2019-03-08T01:41:08.604Z,8.00
2019-03-08T01:43:42.285Z,8.00
2019-03-08T01:46:15.324Z,8.00
2019-03-08T01:48:48.123Z,8.00
2019-03-08T01:51:21.323Z,7.90
2019-03-08T01:53:55.383Z,8.00
2019-03-08T01:56:28.633Z,8.10
2019-03-08T01:59:01.437Z,7.60
2019-03-08T02:01:34.405Z,7.70
2019-03-08T02:04:07.204Z,7.80
2019-03-08T02:06:40.223Z,7.70
2019-03-08T02:09:12.985Z,7.60
2019-03-08T02:11:46.283Z,7.20
2019-03-08T02:14:19.144Z,7.30
2019-03-08T02:16:51.964Z,7.60
2019-03-08T02:19:25.326Z,7.60
2019-03-08T02:21:58.143Z,7.60
2019-03-08T02:24:30.923Z,7.40
2019-03-08T02:27:07.383Z,7.40
2019-03-08T02:29:40.425Z,7.10
2019-03-08T02:32:13.513Z,7.10
2019-03-08T02:34:46.364Z,7.30
2019-03-08T02:37:19.883Z,7.30
2019-03-08T02:39:52.664Z,7.10
2019-03-08T02:42:25.663Z,6.90
2019-03-08T02:44:58.764Z,7.20
2019-03-08T02:47:31.807Z,7.10
2019-03-08T02:50:04.724Z,7.10
2019-03-08T02:52:37.706Z,6.80
2019-03-08T02:55:10.684Z,6.90
2019-03-08T02:57:43.743Z,6.70
2019-03-08T03:00:18.623Z,6.50
2019-03-08T03:02:51.223Z,6.40
2019-03-08T03:05:24.504Z,6.30
2019-03-08T03:07:57.584Z,6.30
2019-03-08T03:10:30.724Z,6.30
2019-03-08T03:13:03.513Z,6.40
2019-03-08T03:15:36.346Z,6.50
2019-03-08T03:18:09.185Z,6.40
2019-03-08T03:20:42.791Z,6.40
2019-03-08T03:23:15.743Z,6.50
2019-03-08T03:25:48.723Z,6.70
2019-03-08T03:28:21.663Z,6.60
2019-03-08T03:30:54.545Z,6.90
2019-03-08T03:33:29.628Z,7.10
2019-03-08T03:36:02.397Z,7.20
2019-03-08T03:38:35.343Z,7.30
2019-03-08T03:41:08.204Z,7.20
2019-03-08T03:43:41.147Z,7.10
2019-03-08T03:46:14.544Z,6.70
2019-03-08T03:48:47.323Z,6.50
2019-03-08T03:51:20.223Z,6.70
2019-03-08T03:53:53.744Z,6.70
2019-03-08T03:56:27.143Z,6.60
2019-03-08T03:58:59.964Z,6.40
2019-03-08T04:01:34.327Z,6.40
2019-03-08T04:04:08.323Z,6.40
2019-03-08T04:06:41.185Z,6.50
2019-03-08T04:09:13.946Z,6.50
2019-03-08T04:11:47.064Z,6.60
2019-03-08T04:14:19.965Z,6.80
2019-03-08T04:16:52.983Z,6.70
2019-03-08T04:19:25.883Z,6.50
2019-03-08T04:21:58.765Z,6.40
2019-03-08T04:24:31.964Z,6.20
2019-03-08T04:27:04.944Z,6.30
2019-03-08T04:29:38.063Z,6.50
2019-03-08T04:32:11.513Z,6.30
2019-03-08T04:34:44.383Z,6.30
2019-03-08T04:37:17.803Z,6.20
2019-03-08T04:39:50.944Z,6.10
2019-03-08T04:42:23.745Z,6.10
2019-03-08T04:44:57.003Z,6.00
2019-03-08T04:47:30.283Z,5.90
2019-03-08T04:50:02.944Z,6.00
2019-03-08T04:52:35.844Z,6.20
2019-03-08T04:55:08.924Z,6.40
2019-03-08T04:57:41.785Z,6.60
2019-03-08T05:00:14.609Z,6.80
2019-03-08T05:02:47.394Z,6.70
2019-03-08T05:05:20.663Z,6.80
2019-03-08T05:07:54.263Z,6.90
2019-03-08T05:10:28.245Z,6.90
2019-03-08T05:13:01.244Z,6.80
2019-03-08T05:15:34.124Z,6.80
2019-03-08T05:18:07.184Z,6.60
2019-03-08T05:20:40.405Z,6.50
2019-03-08T05:23:14.064Z,6.40
2019-03-08T05:25:47.983Z,6.50
2019-03-08T05:28:20.824Z,6.60
2019-03-08T05:30:53.723Z,6.60
2019-03-08T05:33:26.503Z,6.70
2019-03-08T05:35:59.623Z,6.70
2019-03-08T05:38:32.643Z,6.70
2019-03-08T05:41:05.603Z,6.80
2019-03-08T05:43:38.871Z,6.80
2019-03-08T05:46:11.783Z,6.80
2019-03-08T05:48:44.804Z,6.50
2019-03-08T05:51:17.764Z,6.50
2019-03-08T05:53:50.686Z,6.50
2019-03-08T05:56:23.644Z,6.60
2019-03-08T05:58:56.603Z,6.70
2019-03-08T06:01:29.603Z,6.80
2019-03-08T06:04:02.679Z,6.80
2019-03-08T06:06:36.171Z,6.90
2019-03-08T06:09:09.004Z,7.00
2019-03-08T06:11:41.823Z,6.90
2019-03-08T06:14:14.812Z,6.80
2019-03-08T06:16:47.685Z,6.80
2019-03-08T06:19:20.504Z,6.90
2019-03-08T06:21:53.387Z,7.10
2019-03-08T06:24:26.253Z,7.00
2019-03-08T06:26:59.104Z,7.00
2019-03-08T06:29:32.623Z,7.10
2019-03-08T06:32:05.977Z,7.30
2019-03-08T06:34:39.052Z,7.20
2019-03-08T06:37:11.983Z,7.30
2019-03-08T06:39:46.563Z,7.10
2019-03-08T06:42:20.143Z,7.20
2019-03-08T06:44:53.747Z,7.20
2019-03-08T06:47:27.084Z,7.30
2019-03-08T06:50:00.026Z,7.10
2019-03-08T06:52:33.029Z,7.20
2019-03-08T06:55:05.884Z,7.30
2019-03-08T06:57:38.704Z,7.50
2019-03-08T07:00:13.123Z,7.60
2019-03-08T07:02:46.922Z,7.40
2019-03-08T07:05:19.683Z,7.30
2019-03-08T07:07:52.547Z,7.40
2019-03-08T07:10:25.765Z,7.40
2019-03-08T07:13:03.411Z,7.40
2019-03-08T07:15:33.484Z,7.40
2019-03-08T07:18:12.710Z,7.60
2019-03-08T07:20:43.604Z,7.70
2019-03-08T07:23:27.573Z,7.90
2019-03-08T07:25:57.123Z,7.80
2019-03-08T07:28:46.784Z,7.90
2019-03-08T07:31:27.043Z,8.10
2019-03-08T07:33:59.643Z,8.10
2019-03-08T07:36:52.643Z,8.10
2019-03-08T07:39:43.563Z,8.30
2019-03-08T07:42:24.849Z,8.50
2019-03-08T07:45:15.264Z,8.70
2019-03-08T07:48:05.645Z,8.80
2019-03-08T07:50:44.265Z,8.70
2019-03-08T07:53:33.785Z,8.70
2019-03-08T07:56:06.665Z,8.60
2019-03-08T07:58:47.043Z,8.50
2019-03-08T08:01:21.465Z,8.60
2019-03-08T08:03:58.803Z,8.70
2019-03-08T08:06:36.243Z,8.90
2019-03-08T08:09:10.883Z,9.10
2019-03-08T08:11:46.383Z,9.10
2019-03-08T08:14:26.570Z,9.10
2019-03-08T08:17:11.172Z,9.20
2019-03-08T08:19:59.023Z,9.40
2019-03-08T08:22:43.171Z,9.50
2019-03-08T08:25:36.940Z,9.40
2019-03-08T08:28:19.067Z,9.50
2019-03-08T08:31:05.485Z,9.40
2019-03-08T08:33:52.143Z,9.50
2019-03-08T08:36:38.864Z,9.30
2019-03-08T08:39:13.323Z,9.30
2019-03-08T08:42:02.777Z,9.20
2019-03-08T08:44:53.132Z,9.20
2019-03-08T08:47:27.744Z,9.20
2019-03-08T08:50:18.483Z,9.00
2019-03-08T08:53:02.594Z,9.00
2019-03-08T08:55:35.463Z,8.80
2019-03-08T08:58:22.411Z,8.80
2019-03-08T09:01:02.470Z,8.80
2019-03-08T09:03:49.043Z,8.80
2019-03-08T09:06:23.484Z,8.70
2019-03-08T09:09:09.851Z,8.80
2019-03-08T09:11:51.949Z,8.80
2019-03-08T09:14:29.271Z,8.90
2019-03-08T09:17:05.663Z,8.80
2019-03-08T09:19:46.023Z,8.80
2019-03-08T09:22:22.983Z,8.80
2019-03-08T09:24:57.334Z,8.70
2019-03-08T09:27:32.224Z,8.60
2019-03-08T09:30:09.327Z,8.60
2019-03-08T09:32:59.142Z,8.50
2019-03-08T09:35:30.023Z,8.50
2019-03-08T09:38:07.363Z,8.60
2019-03-08T09:40:45.723Z,8.40
2019-03-08T09:43:20.183Z,8.30
2019-03-08T09:46:10.845Z,8.50
2019-03-08T09:49:00.523Z,8.50
2019-03-08T09:51:35.086Z,8.40
2019-03-08T09:54:09.743Z,8.60
2019-03-08T09:56:46.743Z,8.60
2019-03-08T09:59:22.243Z,8.50
2019-03-08T10:01:59.363Z,8.50
2019-03-08T10:04:45.803Z,8.40
2019-03-08T10:07:20.403Z,8.40
2019-03-08T10:10:11.170Z,8.30
2019-03-08T10:12:44.143Z,8.40
2019-03-08T10:15:33.803Z,8.40
2019-03-08T10:18:20.212Z,8.50
2019-03-08T10:20:54.763Z,8.60
2019-03-08T10:23:33.183Z,8.90
2019-03-08T10:26:08.763Z,9.40
2019-03-08T10:28:49.083Z,9.50
2019-03-08T10:31:23.762Z,9.50
2019-03-08T10:34:07.367Z,9.80
2019-03-08T10:36:47.984Z,9.90
2019-03-08T10:39:35.504Z,9.80
2019-03-08T10:42:16.683Z,10.10
2019-03-08T10:44:51.203Z,10.00
2019-03-08T10:47:28.403Z,10.10
2019-03-08T10:50:02.702Z,10.20
2019-03-08T10:52:43.285Z,10.00
2019-03-08T10:55:24.886Z,10.00
2019-03-08T10:58:02.002Z,10.10
2019-03-08T11:00:45.764Z,10.30
2019-03-08T11:03:22.923Z,10.50
2019-03-08T11:06:06.144Z,10.50
2019-03-08T11:08:44.784Z,10.10
2019-03-08T11:11:22.124Z,10.00
2019-03-08T11:14:12.843Z,10.00
2019-03-08T11:16:59.483Z,10.20
2019-03-08T11:19:45.912Z,10.00
2019-03-08T11:22:35.564Z,10.00
2019-03-08T11:25:15.544Z,10.10
2019-03-08T11:27:55.866Z,10.20
2019-03-08T11:30:39.524Z,10.30
2019-03-08T11:33:22.905Z,10.40
2019-03-08T11:36:12.483Z,10.60
2019-03-08T11:38:49.883Z,10.70
2019-03-08T11:41:27.444Z,10.60
2019-03-08T11:44:02.003Z,10.60
2019-03-08T11:46:36.343Z,10.40
2019-03-08T11:49:10.803Z,10.40
2019-03-08T11:51:45.243Z,10.20
2019-03-08T11:54:19.455Z,10.40
2019-03-08T11:57:09.203Z,10.50
2019-03-08T12:00:00.003Z,10.50
2019-03-08T12:02:40.363Z,10.40
2019-03-08T12:05:12.865Z,10.40
2019-03-08T12:08:04.163Z,10.20
2019-03-08T12:10:36.578Z,10.30
2019-03-08T12:13:14.003Z,10.40
2019-03-08T12:15:57.566Z,10.60
2019-03-08T12:18:30.144Z,10.50
2019-03-08T12:21:10.850Z,10.70
2019-03-08T12:24:03.524Z,10.70
2019-03-08T12:26:56.967Z,10.60
2019-03-08T12:29:36.183Z,10.50
2019-03-08T12:32:10.604Z,10.60
2019-03-08T12:34:47.786Z,10.50
2019-03-08T12:37:22.234Z,10.60
2019-03-08T12:39:56.683Z,10.50
2019-03-08T12:42:40.143Z,10.50
2019-03-08T12:45:31.023Z,10.60
2019-03-08T12:48:24.097Z,10.60
2019-03-08T12:51:10.123Z,10.70
2019-03-08T12:53:48.385Z,11.20
2019-03-08T12:56:39.083Z,11.20
2019-03-08T12:59:19.744Z,11.70
2019-03-08T13:01:54.243Z,11.60
2019-03-08T13:04:31.391Z,11.70
2019-03-08T13:07:07.174Z,11.10
2019-03-08T13:09:42.724Z,11.50
2019-03-08T13:12:15.626Z,11.90
2019-03-08T13:14:48.623Z,11.70
2019-03-08T13:17:22.623Z,11.50
2019-03-08T13:19:55.844Z,11.10
2019-03-08T13:22:28.923Z,11.50
2019-03-08T13:25:01.767Z,11.40
2019-03-08T13:27:34.663Z,11.30
2019-03-08T13:30:07.491Z,11.20
2019-03-08T13:32:40.424Z,11.10
2019-03-08T13:35:13.603Z,11.10
2019-03-08T13:37:46.583Z,11.00
2019-03-08T13:40:19.644Z,11.00
2019-03-08T13:42:52.525Z,11.30
2019-03-08T13:45:25.364Z,11.60
2019-03-08T13:47:58.525Z,11.40
2019-03-08T13:50:31.884Z,11.20
2019-03-08T13:53:04.735Z,11.00
2019-03-08T13:55:37.623Z,11.00
2019-03-08T13:58:10.503Z,10.80
2019-03-08T14:00:43.463Z,10.60
2019-03-08T14:03:16.684Z,10.50
2019-03-08T14:05:49.523Z,10.40
2019-03-08T14:08:22.391Z,10.30
2019-03-08T14:10:55.166Z,10.30
2019-03-08T14:13:28.007Z,10.20
2019-03-08T14:16:00.843Z,10.30
2019-03-08T14:18:33.883Z,10.30
2019-03-08T14:21:06.684Z,10.30
2019-03-08T14:23:40.744Z,10.20
2019-03-08T14:26:13.559Z,10.30
2019-03-08T14:28:46.783Z,10.40
2019-03-08T14:31:29.964Z,10.50
2019-03-08T14:34:03.084Z,10.60
2019-03-08T14:36:39.273Z,10.50
2019-03-08T14:39:10.903Z,10.30
2019-03-08T14:41:48.464Z,10.40
2019-03-08T14:44:22.870Z,10.30
2019-03-08T14:46:57.593Z,10.30
2019-03-08T14:49:30.806Z,10.50
2019-03-08T14:52:03.534Z,10.40
2019-03-08T14:54:36.485Z,10.10
2019-03-08T14:57:09.356Z,10.20
2019-03-08T14:59:43.623Z,10.50
2019-03-08T15:02:16.963Z,10.40
2019-03-08T15:04:49.883Z,10.40
2019-03-08T15:07:22.608Z,10.30
2019-03-08T15:09:55.589Z,10.10
2019-03-08T15:12:32.930Z,10.10
2019-03-08T15:15:03.307Z,9.90
2019-03-08T15:17:36.530Z,10.00
2019-03-08T15:20:15.203Z,9.90
2019-03-08T15:22:44.651Z,9.80
2019-03-08T15:25:17.749Z,10.00
2019-03-08T15:27:50.894Z,9.90
2019-03-08T15:30:23.897Z,9.90
2019-03-08T15:32:56.712Z,9.90
2019-03-08T15:35:29.628Z,9.90
2019-03-08T15:38:02.448Z,9.90
2019-03-08T15:40:35.587Z,9.90
2019-03-08T15:43:09.799Z,9.80
2019-03-08T15:45:44.638Z,9.80
2019-03-08T15:48:17.812Z,9.80
2019-03-08T15:50:51.230Z,9.80
2019-03-08T15:53:24.169Z,9.90
2019-03-08T15:55:57.799Z,9.90
2019-03-08T15:58:31.698Z,9.60
2019-03-08T16:01:04.990Z,9.40
2019-03-08T16:03:38.259Z,9.40
2019-03-08T16:06:11.169Z,9.40
2019-03-08T16:08:44.069Z,9.30
2019-03-08T16:11:17.649Z,9.10
2019-03-08T16:13:50.678Z,9.10
2019-03-08T16:16:24.051Z,9.10
2019-03-08T16:18:57.049Z,8.80
2019-03-08T16:21:30.209Z,8.50
2019-03-08T16:24:02.984Z,8.30
2019-03-08T16:26:36.049Z,8.20
2019-03-08T16:29:09.429Z,8.10
2019-03-08T16:31:43.803Z,8.30
2019-03-08T16:34:17.327Z,8.20
2019-03-08T16:36:51.910Z,8.20
2019-03-08T16:39:29.488Z,8.10
2019-03-08T16:42:08.226Z,8.20
2019-03-08T16:44:48.468Z,8.10
2019-03-08T16:47:31.908Z,7.90
2019-03-08T16:50:15.247Z,7.70
2019-03-08T16:52:49.967Z,7.40
2019-03-08T16:55:42.710Z,7.20
2019-03-08T16:58:17.187Z,7.10
2019-03-08T17:00:54.467Z,7.10
2019-03-08T17:03:28.994Z,7.00
2019-03-08T17:06:07.147Z,6.90
2019-03-08T17:08:57.989Z,6.90
2019-03-08T17:11:35.348Z,7.00
2019-03-08T17:14:22.289Z,7.40
2019-03-08T17:16:59.868Z,7.70
2019-03-08T17:19:47.427Z,7.80
2019-03-08T17:22:26.368Z,7.80
2019-03-08T17:25:06.670Z,7.80
2019-03-08T17:27:42.348Z,7.90
2019-03-08T17:30:16.739Z,7.80
2019-03-08T17:32:51.428Z,7.80
2019-03-08T17:35:36.987Z,7.80
2019-03-08T17:38:11.547Z,7.90
2019-03-08T17:40:48.947Z,7.90
2019-03-08T17:43:29.627Z,7.80
2019-03-08T17:46:10.048Z,7.70
2019-03-08T17:48:58.090Z,7.90
2019-03-08T17:51:30.827Z,8.10
2019-03-08T17:54:11.247Z,8.00
2019-03-08T17:56:51.807Z,8.00
2019-03-08T17:59:35.267Z,8.00
2019-03-08T18:02:10.129Z,8.00
2019-03-08T18:04:48.708Z,7.80
2019-03-08T18:07:25.839Z,7.90
2019-03-08T18:10:06.108Z,7.90
2019-03-08T18:12:59.628Z,7.90
2019-03-08T18:15:36.607Z,8.00
2019-03-08T18:18:11.827Z,8.00
2019-03-08T18:20:56.907Z,8.00
2019-03-08T18:23:36.988Z,8.00
2019-03-08T18:26:09.828Z,7.90
2019-03-08T18:28:59.849Z,7.90
2019-03-08T18:31:44.630Z,7.90
2019-03-08T18:34:31.488Z,7.90
2019-03-08T18:37:06.327Z,7.80
2019-03-08T18:39:49.748Z,7.70
2019-03-08T18:42:40.067Z,7.70
2019-03-08T18:45:24.669Z,7.70
2019-03-08T18:47:59.087Z,7.70
2019-03-08T18:50:51.612Z,7.70
2019-03-08T18:53:26.178Z,7.70
2019-03-08T18:56:06.816Z,7.80
2019-03-08T18:58:50.257Z,7.90
2019-03-08T19:01:33.937Z,7.90
2019-03-08T19:04:13.949Z,8.00
2019-03-08T19:06:48.676Z,8.00
2019-03-08T19:09:30.207Z,8.00
2019-03-08T19:12:21.269Z,8.00
2019-03-08T19:15:13.007Z,7.90
2019-03-08T19:17:47.527Z,7.90
2019-03-08T19:20:36.883Z,8.00
2019-03-08T19:23:15.020Z,7.90
2019-03-08T19:25:50.470Z,7.80
2019-03-08T19:28:38.508Z,7.80
2019-03-08T19:31:19.016Z,7.90
2019-03-08T19:34:03.808Z,7.80
2019-03-08T19:36:48.467Z,7.80
2019-03-08T19:39:24.207Z,7.80
2019-03-08T19:42:04.915Z,7.80
2019-03-08T19:44:42.449Z,7.70
2019-03-08T19:47:15.068Z,7.50
2019-03-08T19:50:04.634Z,7.50
2019-03-08T19:52:43.299Z,7.50
2019-03-08T19:55:17.819Z,7.60
2019-03-08T19:58:07.816Z,7.70
2019-03-08T20:00:52.336Z,7.70
2019-03-08T20:03:32.519Z,7.70
2019-03-08T20:06:07.017Z,7.60
2019-03-08T20:08:53.467Z,7.40
2019-03-08T20:11:28.080Z,7.50
2019-03-08T20:14:17.153Z,7.50
2019-03-08T20:16:51.749Z,7.40
2019-03-08T20:19:35.371Z,7.50
2019-03-08T20:22:16.172Z,7.50
2019-03-08T20:24:56.235Z,7.20
2019-03-08T20:27:29.330Z,7.10
2019-03-08T20:30:19.838Z,7.10
2019-03-08T20:33:03.941Z,7.00
2019-03-08T20:35:36.557Z,7.00
2019-03-08T20:38:11.033Z,6.90
2019-03-08T20:40:48.374Z,6.80
2019-03-08T20:43:32.339Z,6.60
2019-03-08T20:46:06.869Z,6.30
2019-03-08T20:48:39.653Z,6.20
2019-03-08T20:51:14.353Z,6.10
2019-03-08T20:53:47.191Z,6.10
2019-03-08T20:56:20.143Z,6.20
2019-03-08T20:58:53.009Z,6.30
2019-03-08T21:01:26.357Z,6.20
2019-03-08T21:03:59.153Z,6.30
2019-03-08T21:06:32.142Z,6.30
2019-03-08T21:09:05.130Z,5.90
2019-03-08T21:11:37.935Z,5.70
2019-03-08T21:14:10.930Z,6.00
2019-03-08T21:16:44.157Z,5.90
2019-03-08T21:19:17.220Z,5.90
2019-03-08T21:21:50.179Z,5.70
2019-03-08T21:24:22.981Z,5.80
2019-03-08T21:26:55.885Z,5.80
2019-03-08T21:29:28.953Z,5.80
2019-03-08T21:32:01.793Z,5.80
2019-03-08T21:34:34.628Z,6.00
2019-03-08T21:37:07.397Z,6.10
2019-03-08T21:39:40.327Z,6.20
2019-03-08T21:42:13.395Z,6.10
2019-03-08T21:44:46.386Z,6.30
2019-03-08T21:47:19.573Z,6.30
2019-03-08T21:49:52.432Z,6.40
2019-03-08T21:52:25.943Z,6.30
2019-03-08T21:54:58.849Z,6.40
2019-03-08T21:57:31.674Z,6.40
2019-03-08T22:00:04.531Z,6.20
2019-03-08T22:02:37.430Z,6.20
2019-03-08T22:05:10.551Z,6.10
2019-03-08T22:07:43.798Z,6.10
2019-03-08T22:10:21.232Z,6.30
2019-03-08T22:12:54.107Z,6.00
2019-03-08T22:15:27.076Z,5.90
2019-03-08T22:18:00.470Z,6.00
2019-03-08T22:20:33.491Z,6.10
2019-03-08T22:23:06.571Z,6.20
2019-03-08T22:25:39.428Z,6.30
2019-03-08T22:28:12.237Z,6.10
2019-03-08T22:30:45.004Z,6.20
2019-03-08T22:33:17.941Z,6.20
2019-03-08T22:35:50.868Z,6.30
2019-03-08T22:38:24.347Z,6.10
2019-03-08T22:40:57.160Z,6.10
2019-03-08T22:43:30.067Z,6.10
2019-03-08T22:46:02.871Z,5.90
2019-03-08T22:48:35.663Z,5.90
2019-03-08T22:51:08.479Z,5.80
2019-03-08T22:53:41.279Z,5.80
2019-03-08T22:56:14.276Z,5.90
2019-03-08T22:58:47.190Z,5.80
2019-03-08T23:01:20.389Z,5.90
2019-03-08T23:03:53.089Z,5.80
2019-03-08T23:06:26.209Z,5.90
2019-03-08T23:08:58.982Z,5.90
2019-03-08T23:11:32.077Z,5.90
2019-03-08T23:14:04.918Z,6.00
2019-03-08T23:16:37.829Z,6.10
2019-03-08T23:19:10.974Z,6.00
2019-03-08T23:21:43.949Z,6.00
2019-03-08T23:24:16.742Z,5.80
2019-03-08T23:26:51.277Z,5.70
2019-03-08T23:29:25.707Z,5.90
2019-03-08T23:32:03.187Z,5.90
2019-03-08T23:34:36.667Z,6.00
2019-03-08T23:37:09.967Z,5.70
2019-03-08T23:39:42.927Z,5.70
2019-03-08T23:42:15.887Z,5.70
2019-03-08T23:44:49.009Z,5.70
2019-03-08T23:47:23.968Z,5.70
2019-03-08T23:49:56.898Z,5.60
2019-03-08T23:52:30.667Z,5.50
2019-03-08T23:55:04.388Z,5.50
2019-03-08T23:57:37.308Z,5.60
